sensor_id;sensor_type;location;lat;lon;timestamp;pressure;altitude;pressure_sealevel;temperature
67599;BMP280;62026;39.230;9.122;2022-12-13T00:01:40;100076.66;;;15.13
67599;BMP280;62026;39.230;9.122;2022-12-13T00:04:08;100065.78;;;15.15
67599;BMP280;62026;39.230;9.122;2022-12-13T00:06:34;100048.50;;;15.12
67599;BMP280;62026;39.230;9.122;2022-12-13T00:09:04;100065.56;;;15.21
67599;BMP280;62026;39.230;9.122;2022-12-13T00:11:30;100065.09;;;15.24
67599;BMP280;62026;39.230;9.122;2022-12-13T00:13:57;100066.66;;;15.30
67599;BMP280;62026;39.230;9.122;2022-12-13T00:16:25;100040.31;;;15.19
67599;BMP280;62026;39.230;9.122;2022-12-13T00:18:57;100049.94;;;15.30
67599;BMP280;62026;39.230;9.122;2022-12-13T00:21:26;100039.59;;;15.33
67599;BMP280;62026;39.230;9.122;2022-12-13T00:23:52;100033.53;;;15.43
67599;BMP280;62026;39.230;9.122;2022-12-13T00:26:21;100031.38;;;15.35
67599;BMP280;62026;39.230;9.122;2022-12-13T00:28:48;100018.63;;;15.42
67599;BMP280;62026;39.230;9.122;2022-12-13T00:31:21;100026.88;;;15.45
67599;BMP280;62026;39.230;9.122;2022-12-13T00:33:48;100014.41;;;15.41
67599;BMP280;62026;39.230;9.122;2022-12-13T00:36:15;100011.78;;;15.46
67599;BMP280;62026;39.230;9.122;2022-12-13T00:38:42;100020.25;;;15.48
67599;BMP280;62026;39.230;9.122;2022-12-13T00:41:19;100016.25;;;15.45
67599;BMP280;62026;39.230;9.122;2022-12-13T00:43:46;99996.31;;;15.48
67599;BMP280;62026;39.230;9.122;2022-12-13T00:46:18;100009.09;;;15.51
67599;BMP280;62026;39.230;9.122;2022-12-13T00:48:50;100005.94;;;15.59
67599;BMP280;62026;39.230;9.122;2022-12-13T00:51:17;100008.09;;;15.57
67599;BMP280;62026;39.230;9.122;2022-12-13T00:53:44;99996.09;;;15.55
67599;BMP280;62026;39.230;9.122;2022-12-13T00:56:17;99993.22;;;15.61
67599;BMP280;62026;39.230;9.122;2022-12-13T00:58:44;99988.38;;;15.58
67599;BMP280;62026;39.230;9.122;2022-12-13T01:01:13;99985.22;;;15.61
67599;BMP280;62026;39.230;9.122;2022-12-13T01:03:40;99966.03;;;15.54
67599;BMP280;62026;39.230;9.122;2022-12-13T01:09:01;100004.91;;;15.75
67599;BMP280;62026;39.230;9.122;2022-12-13T01:11:27;99993.53;;;15.80
67599;BMP280;62026;39.230;9.122;2022-12-13T01:13:53;99978.88;;;15.72
67599;BMP280;62026;39.230;9.122;2022-12-13T01:16:19;99986.59;;;15.79
67599;BMP280;62026;39.230;9.122;2022-12-13T01:18:47;99990.59;;;15.87
67599;BMP280;62026;39.230;9.122;2022-12-13T01:21:17;99984.19;;;15.83
67599;BMP280;62026;39.230;9.122;2022-12-13T01:23:44;99987.44;;;15.85
67599;BMP280;62026;39.230;9.122;2022-12-13T01:26:17;99971.44;;;15.79
67599;BMP280;62026;39.230;9.122;2022-12-13T01:28:44;99983.69;;;15.86
67599;BMP280;62026;39.230;9.122;2022-12-13T01:31:13;99954.38;;;15.80
67599;BMP280;62026;39.230;9.122;2022-12-13T01:33:42;99963.72;;;15.88
67599;BMP280;62026;39.230;9.122;2022-12-13T01:36:14;99961.63;;;15.85
67599;BMP280;62026;39.230;9.122;2022-12-13T01:38:40;99950.97;;;15.85
67599;BMP280;62026;39.230;9.122;2022-12-13T01:41:07;99946.16;;;15.82
67599;BMP280;62026;39.230;9.122;2022-12-13T01:46:03;99959.22;;;15.89
67599;BMP280;62026;39.230;9.122;2022-12-13T01:48:35;99957.34;;;15.89
67599;BMP280;62026;39.230;9.122;2022-12-13T01:51:06;99966.16;;;15.85
67599;BMP280;62026;39.230;9.122;2022-12-13T01:53:37;99966.66;;;15.87
67599;BMP280;62026;39.230;9.122;2022-12-13T01:56:10;99953.34;;;15.87
67599;BMP280;62026;39.230;9.122;2022-12-13T01:58:38;99955.72;;;15.83
67599;BMP280;62026;39.230;9.122;2022-12-13T02:01:04;99953.09;;;15.88
67599;BMP280;62026;39.230;9.122;2022-12-13T02:03:32;99958.97;;;15.85
67599;BMP280;62026;39.230;9.122;2022-12-13T02:06:05;99961.84;;;15.84
67599;BMP280;62026;39.230;9.122;2022-12-13T02:08:34;99964.50;;;15.84
67599;BMP280;62026;39.230;9.122;2022-12-13T02:11:02;99948.53;;;15.84
67599;BMP280;62026;39.230;9.122;2022-12-13T02:13:28;99942.69;;;15.82
67599;BMP280;62026;39.230;9.122;2022-12-13T02:28:18;99928.06;;;15.84
67599;BMP280;62026;39.230;9.122;2022-12-13T02:31:07;99916.63;;;15.84
67599;BMP280;62026;39.230;9.122;2022-12-13T02:34:07;99915.59;;;15.85
67599;BMP280;62026;39.230;9.122;2022-12-13T02:36:51;99917.69;;;15.83
67599;BMP280;62026;39.230;9.122;2022-12-13T02:39:29;99917.41;;;15.84
67599;BMP280;62026;39.230;9.122;2022-12-13T02:42:03;99919.81;;;15.86
67599;BMP280;62026;39.230;9.122;2022-12-13T02:44:40;99919.81;;;15.80
67599;BMP280;62026;39.230;9.122;2022-12-13T02:47:14;99916.38;;;15.85
67599;BMP280;62026;39.230;9.122;2022-12-13T02:49:47;99895.88;;;15.86
67599;BMP280;62026;39.230;9.122;2022-12-13T02:52:19;99891.63;;;15.85
67599;BMP280;62026;39.230;9.122;2022-12-13T02:54:47;99882.56;;;15.80
67599;BMP280;62026;39.230;9.122;2022-12-13T02:57:35;99866.09;;;15.78
67599;BMP280;62026;39.230;9.122;2022-12-13T03:06:44;99874.03;;;15.99
67599;BMP280;62026;39.230;9.122;2022-12-13T03:18:19;99855.97;;;15.96
67599;BMP280;62026;39.230;9.122;2022-12-13T03:20:54;99849.03;;;16.05
67599;BMP280;62026;39.230;9.122;2022-12-13T03:23:22;99866.59;;;16.06
67599;BMP280;62026;39.230;9.122;2022-12-13T03:25:53;99855.44;;;16.09
67599;BMP280;62026;39.230;9.122;2022-12-13T03:28:20;99867.69;;;16.10
67599;BMP280;62026;39.230;9.122;2022-12-13T03:30:47;99857.56;;;16.12
67599;BMP280;62026;39.230;9.122;2022-12-13T03:33:13;99871.41;;;16.09
67599;BMP280;62026;39.230;9.122;2022-12-13T03:35:41;99867.13;;;16.18
67599;BMP280;62026;39.230;9.122;2022-12-13T03:38:08;99866.06;;;16.14
67599;BMP280;62026;39.230;9.122;2022-12-13T03:40:34;99861.28;;;16.16
67599;BMP280;62026;39.230;9.122;2022-12-13T03:43:01;99838.63;;;16.19
67599;BMP280;62026;39.230;9.122;2022-12-13T03:45:27;99829.31;;;16.21
67599;BMP280;62026;39.230;9.122;2022-12-13T03:47:53;99851.19;;;16.23
67599;BMP280;62026;39.230;9.122;2022-12-13T03:50:19;99844.75;;;16.19
67599;BMP280;62026;39.230;9.122;2022-12-13T03:52:45;99841.03;;;16.25
67599;BMP280;62026;39.230;9.122;2022-12-13T03:55:13;99854.34;;;16.25
67599;BMP280;62026;39.230;9.122;2022-12-13T03:57:39;99848.75;;;16.32
67599;BMP280;62026;39.230;9.122;2022-12-13T04:00:06;99849.56;;;16.27
67599;BMP280;62026;39.230;9.122;2022-12-13T04:02:38;99841.56;;;16.32
67599;BMP280;62026;39.230;9.122;2022-12-13T04:05:04;99853.28;;;16.31
67599;BMP280;62026;39.230;9.122;2022-12-13T04:07:30;99850.63;;;16.31
67599;BMP280;62026;39.230;9.122;2022-12-13T04:09:56;99851.41;;;16.27
67599;BMP280;62026;39.230;9.122;2022-12-13T04:12:22;99849.00;;;16.35
67599;BMP280;62026;39.230;9.122;2022-12-13T04:15:08;99849.81;;;16.26
67599;BMP280;62026;39.230;9.122;2022-12-13T04:17:34;99842.63;;;16.31
67599;BMP280;62026;39.230;9.122;2022-12-13T04:20:00;99839.41;;;16.29
67599;BMP280;62026;39.230;9.122;2022-12-13T04:22:26;99836.78;;;16.24
67599;BMP280;62026;39.230;9.122;2022-12-13T04:24:52;99844.72;;;16.29
67599;BMP280;62026;39.230;9.122;2022-12-13T04:27:17;99838.91;;;16.22
67599;BMP280;62026;39.230;9.122;2022-12-13T04:29:43;99843.69;;;16.30
67599;BMP280;62026;39.230;9.122;2022-12-13T04:32:09;99842.34;;;16.33
67599;BMP280;62026;39.230;9.122;2022-12-13T04:34:35;99824.56;;;16.23
67599;BMP280;62026;39.230;9.122;2022-12-13T04:37:01;99834.06;;;16.29
67599;BMP280;62026;39.230;9.122;2022-12-13T04:39:27;99830.66;;;16.24
67599;BMP280;62026;39.230;9.122;2022-12-13T04:41:53;99846.34;;;16.25
67599;BMP280;62026;39.230;9.122;2022-12-13T04:44:19;99843.94;;;16.29
67599;BMP280;62026;39.230;9.122;2022-12-13T04:46:45;99842.34;;;16.28
67599;BMP280;62026;39.230;9.122;2022-12-13T04:49:11;99838.09;;;16.32
67599;BMP280;62026;39.230;9.122;2022-12-13T04:51:37;99836.75;;;16.34
67599;BMP280;62026;39.230;9.122;2022-12-13T04:54:03;99840.50;;;16.33
67599;BMP280;62026;39.230;9.122;2022-12-13T04:56:29;99846.88;;;16.32
67599;BMP280;62026;39.230;9.122;2022-12-13T04:58:55;99839.41;;;16.29
67599;BMP280;62026;39.230;9.122;2022-12-13T05:01:21;99830.91;;;16.32
67599;BMP280;62026;39.230;9.122;2022-12-13T05:03:47;99828.75;;;16.29
67599;BMP280;62026;39.230;9.122;2022-12-13T05:06:13;99837.53;;;16.35
67599;BMP280;62026;39.230;9.122;2022-12-13T05:08:40;99830.63;;;16.34
67599;BMP280;62026;39.230;9.122;2022-12-13T05:11:09;99833.56;;;16.32
67599;BMP280;62026;39.230;9.122;2022-12-13T05:13:36;99824.56;;;16.23
67599;BMP280;62026;39.230;9.122;2022-12-13T05:16:05;99831.94;;;16.41
67599;BMP280;62026;39.230;9.122;2022-12-13T05:18:33;99819.69;;;16.40
67599;BMP280;62026;39.230;9.122;2022-12-13T05:21:04;99833.53;;;16.42
67599;BMP280;62026;39.230;9.122;2022-12-13T05:23:32;99846.84;;;16.47
67599;BMP280;62026;39.230;9.122;2022-12-13T05:25:59;99829.00;;;16.43
67599;BMP280;62026;39.230;9.122;2022-12-13T05:28:26;99847.91;;;16.46
67599;BMP280;62026;39.230;9.122;2022-12-13T05:31:08;99838.31;;;16.45
67599;BMP280;62026;39.230;9.122;2022-12-13T05:33:35;99837.25;;;16.46
67599;BMP280;62026;39.230;9.122;2022-12-13T05:36:02;99828.47;;;16.46
67599;BMP280;62026;39.230;9.122;2022-12-13T05:38:28;99848.44;;;16.43
67599;BMP280;62026;39.230;9.122;2022-12-13T05:40:54;99851.38;;;16.47
67599;BMP280;62026;39.230;9.122;2022-12-13T05:43:20;99838.31;;;16.45
67599;BMP280;62026;39.230;9.122;2022-12-13T05:45:49;99849.50;;;16.42
67599;BMP280;62026;39.230;9.122;2022-12-13T05:48:15;99853.78;;;16.48
67599;BMP280;62026;39.230;9.122;2022-12-13T05:50:41;99847.66;;;16.48
67599;BMP280;62026;39.230;9.122;2022-12-13T05:53:08;99833.53;;;16.42
67599;BMP280;62026;39.230;9.122;2022-12-13T05:55:36;99830.34;;;16.45
67599;BMP280;62026;39.230;9.122;2022-12-13T05:58:03;99844.69;;;16.44
67599;BMP280;62026;39.230;9.122;2022-12-13T06:00:30;99839.94;;;16.36
67599;BMP280;62026;39.230;9.122;2022-12-13T06:02:56;99848.72;;;16.42
67599;BMP280;62026;39.230;9.122;2022-12-13T06:05:23;99853.22;;;16.52
67599;BMP280;62026;39.230;9.122;2022-12-13T06:07:49;99857.75;;;16.51
67599;BMP280;62026;39.230;9.122;2022-12-13T06:10:15;99855.06;;;16.51
67599;BMP280;62026;39.230;9.122;2022-12-13T06:12:41;99862.03;;;16.47
67599;BMP280;62026;39.230;9.122;2022-12-13T06:15:07;99855.34;;;16.44
67599;BMP280;62026;39.230;9.122;2022-12-13T06:17:36;99858.00;;;16.44
67599;BMP280;62026;39.230;9.122;2022-12-13T06:20:06;99867.59;;;16.50
67599;BMP280;62026;39.230;9.122;2022-12-13T06:22:32;99867.09;;;16.43
67599;BMP280;62026;39.230;9.122;2022-12-13T06:24:58;99865.50;;;16.42
67599;BMP280;62026;39.230;9.122;2022-12-13T06:27:26;99868.69;;;16.39
67599;BMP280;62026;39.230;9.122;2022-12-13T06:29:52;99876.94;;;16.43
67599;BMP280;62026;39.230;9.122;2022-12-13T06:32:18;99877.22;;;16.46
67599;BMP280;62026;39.230;9.122;2022-12-13T06:34:44;99881.47;;;16.42
67599;BMP280;62026;39.230;9.122;2022-12-13T06:37:12;99874.56;;;16.41
67599;BMP280;62026;39.230;9.122;2022-12-13T06:39:39;99871.88;;;16.46
67599;BMP280;62026;39.230;9.122;2022-12-13T06:42:12;99880.94;;;16.45
67599;BMP280;62026;39.230;9.122;2022-12-13T06:44:40;99875.63;;;16.45
67599;BMP280;62026;39.230;9.122;2022-12-13T06:47:06;99882.53;;;16.46
67599;BMP280;62026;39.230;9.122;2022-12-13T06:49:33;99884.38;;;16.51
67599;BMP280;62026;39.230;9.122;2022-12-13T06:51:59;99883.56;;;16.50
67599;BMP280;62026;39.230;9.122;2022-12-13T06:54:25;99894.53;;;16.54
67599;BMP280;62026;39.230;9.122;2022-12-13T06:56:51;99894.25;;;16.40
67599;BMP280;62026;39.230;9.122;2022-12-13T06:59:17;99900.66;;;16.49
67599;BMP280;62026;39.230;9.122;2022-12-13T07:01:43;99906.00;;;16.55
67599;BMP280;62026;39.230;9.122;2022-12-13T07:04:10;99912.88;;;16.56
67599;BMP280;62026;39.230;9.122;2022-12-13T07:06:37;99907.56;;;16.56
67599;BMP280;62026;39.230;9.122;2022-12-13T07:09:03;99901.97;;;16.62
67599;BMP280;62026;39.230;9.122;2022-12-13T07:11:31;99904.63;;;16.62
67599;BMP280;62026;39.230;9.122;2022-12-13T07:13:59;99903.56;;;16.63
67599;BMP280;62026;39.230;9.122;2022-12-13T07:16:27;99895.56;;;16.68
67599;BMP280;62026;39.230;9.122;2022-12-13T07:18:59;99899.53;;;16.71
67599;BMP280;62026;39.230;9.122;2022-12-13T07:21:25;99913.34;;;16.83
67599;BMP280;62026;39.230;9.122;2022-12-13T07:23:52;99915.72;;;17.00
67599;BMP280;62026;39.230;9.122;2022-12-13T07:26:18;99926.56;;;17.13
67599;BMP280;62026;39.230;9.122;2022-12-13T07:28:45;99921.50;;;17.17
67599;BMP280;62026;39.230;9.122;2022-12-13T07:31:13;99926.50;;;17.29
67599;BMP280;62026;39.230;9.122;2022-12-13T07:33:39;99943.28;;;17.29
67599;BMP280;62026;39.230;9.122;2022-12-13T07:36:17;99939.59;;;17.25
67599;BMP280;62026;39.230;9.122;2022-12-13T07:38:50;99931.94;;;17.03
67599;BMP280;62026;39.230;9.122;2022-12-13T07:41:17;99952.13;;;17.25
67599;BMP280;62026;39.230;9.122;2022-12-13T07:43:43;99944.88;;;17.40
67599;BMP280;62026;39.230;9.122;2022-12-13T07:46:09;99947.38;;;17.66
67599;BMP280;62026;39.230;9.122;2022-12-13T07:48:36;99944.13;;;17.74
67599;BMP280;62026;39.230;9.122;2022-12-13T07:51:08;99944.22;;;17.98
67599;BMP280;62026;39.230;9.122;2022-12-13T07:53:39;99943.78;;;17.90
67599;BMP280;62026;39.230;9.122;2022-12-13T07:56:10;99936.75;;;18.00
67599;BMP280;62026;39.230;9.122;2022-12-13T07:58:37;99949.06;;;18.24
67599;BMP280;62026;39.230;9.122;2022-12-13T08:01:08;99951.75;;;18.53
67599;BMP280;62026;39.230;9.122;2022-12-13T08:03:35;99942.47;;;18.75
67599;BMP280;62026;39.230;9.122;2022-12-13T08:06:05;99948.69;;;18.89
67599;BMP280;62026;39.230;9.122;2022-12-13T08:08:32;99956.72;;;18.89
67599;BMP280;62026;39.230;9.122;2022-12-13T08:11:11;99956.88;;;18.74
67599;BMP280;62026;39.230;9.122;2022-12-13T08:13:38;99967.22;;;19.04
67599;BMP280;62026;39.230;9.122;2022-12-13T08:16:08;99955.03;;;19.17
67599;BMP280;62026;39.230;9.122;2022-12-13T08:18:35;99968.13;;;19.18
67599;BMP280;62026;39.230;9.122;2022-12-13T08:21:04;99962.59;;;19.33
67599;BMP280;62026;39.230;9.122;2022-12-13T08:23:33;99975.09;;;19.57
67599;BMP280;62026;39.230;9.122;2022-12-13T08:26:02;99983.66;;;19.59
67599;BMP280;62026;39.230;9.122;2022-12-13T08:28:30;99989.28;;;19.57
67599;BMP280;62026;39.230;9.122;2022-12-13T08:31:06;100000.53;;;19.78
67599;BMP280;62026;39.230;9.122;2022-12-13T08:33:37;99994.84;;;19.80
67599;BMP280;62026;39.230;9.122;2022-12-13T08:36:15;99996.38;;;19.86
67599;BMP280;62026;39.230;9.122;2022-12-13T08:38:45;100007.72;;;19.96
67599;BMP280;62026;39.230;9.122;2022-12-13T08:41:12;99999.28;;;19.89
67599;BMP280;62026;39.230;9.122;2022-12-13T08:43:38;99998.50;;;19.27
67599;BMP280;62026;39.230;9.122;2022-12-13T08:46:05;100008.56;;;18.93
67599;BMP280;62026;39.230;9.122;2022-12-13T08:48:31;100006.84;;;19.02
67599;BMP280;62026;39.230;9.122;2022-12-13T08:51:02;100016.38;;;19.13
67599;BMP280;62026;39.230;9.122;2022-12-13T08:53:29;100026.03;;;19.33
67599;BMP280;62026;39.230;9.122;2022-12-13T08:56:04;100014.63;;;19.65
67599;BMP280;62026;39.230;9.122;2022-12-13T08:58:30;100003.19;;;19.78
67599;BMP280;62026;39.230;9.122;2022-12-13T09:00:56;100010.31;;;20.01
67599;BMP280;62026;39.230;9.122;2022-12-13T09:03:23;100010.31;;;20.01
67599;BMP280;62026;39.230;9.122;2022-12-13T09:05:49;100023.03;;;19.96
67599;BMP280;62026;39.230;9.122;2022-12-13T09:08:17;100019.44;;;20.00
67599;BMP280;62026;39.230;9.122;2022-12-13T09:10:43;100014.75;;;19.92
67599;BMP280;62026;39.230;9.122;2022-12-13T09:13:10;100022.44;;;19.80
67599;BMP280;62026;39.230;9.122;2022-12-13T09:15:38;100030.59;;;19.70
67599;BMP280;62026;39.230;9.122;2022-12-13T09:18:05;100021.94;;;19.59
67599;BMP280;62026;39.230;9.122;2022-12-13T09:20:34;100032.25;;;19.66
67599;BMP280;62026;39.230;9.122;2022-12-13T09:23:02;100022.81;;;19.73
67599;BMP280;62026;39.230;9.122;2022-12-13T09:25:30;100020.56;;;19.43
67599;BMP280;62026;39.230;9.122;2022-12-13T09:27:58;100014.47;;;19.38
67599;BMP280;62026;39.230;9.122;2022-12-13T09:30:26;100019.47;;;19.44
67599;BMP280;62026;39.230;9.122;2022-12-13T09:32:53;100019.22;;;19.41
67599;BMP280;62026;39.230;9.122;2022-12-13T09:35:18;100017.06;;;19.43
67599;BMP280;62026;39.230;9.122;2022-12-13T09:37:44;100018.09;;;19.47
67599;BMP280;62026;39.230;9.122;2022-12-13T09:40:24;100037.47;;;19.57
67599;BMP280;62026;39.230;9.122;2022-12-13T09:42:56;100027.78;;;19.80
67599;BMP280;62026;39.230;9.122;2022-12-13T09:45:23;100029.81;;;19.88
67599;BMP280;62026;39.230;9.122;2022-12-13T09:47:51;100019.84;;;19.56
67599;BMP280;62026;39.230;9.122;2022-12-13T09:50:28;100024.56;;;19.41
67599;BMP280;62026;39.230;9.122;2022-12-13T09:52:55;100024.72;;;19.30
67599;BMP280;62026;39.230;9.122;2022-12-13T09:55:38;100047.59;;;19.18
67599;BMP280;62026;39.230;9.122;2022-12-13T09:58:30;100034.84;;;19.10
67599;BMP280;62026;39.230;9.122;2022-12-13T10:00:58;100033.47;;;19.12
67599;BMP280;62026;39.230;9.122;2022-12-13T10:03:25;100035.13;;;19.08
67599;BMP280;62026;39.230;9.122;2022-12-13T10:06:00;100027.59;;;19.15
67599;BMP280;62026;39.230;9.122;2022-12-13T10:08:39;100034.34;;;19.31
67599;BMP280;62026;39.230;9.122;2022-12-13T10:11:13;100037.47;;;19.39
67599;BMP280;62026;39.230;9.122;2022-12-13T10:13:52;100037.91;;;19.46
67599;BMP280;62026;39.230;9.122;2022-12-13T10:16:45;100021.16;;;19.35
67599;BMP280;62026;39.230;9.122;2022-12-13T10:19:19;100020.50;;;19.24
67599;BMP280;62026;39.230;9.122;2022-12-13T10:21:47;100030.53;;;19.14
67599;BMP280;62026;39.230;9.122;2022-12-13T10:24:20;100029.28;;;19.06
67599;BMP280;62026;39.230;9.122;2022-12-13T10:26:47;100043.75;;;19.05
67599;BMP280;62026;39.230;9.122;2022-12-13T10:29:13;100021.47;;;18.86
67599;BMP280;62026;39.230;9.122;2022-12-13T10:31:42;100033.47;;;18.88
67599;BMP280;62026;39.230;9.122;2022-12-13T10:34:23;100030.88;;;18.83
67599;BMP280;62026;39.230;9.122;2022-12-13T10:36:50;100045.53;;;18.86
67599;BMP280;62026;39.230;9.122;2022-12-13T10:39:41;100047.72;;;18.84
67599;BMP280;62026;39.230;9.122;2022-12-13T10:42:18;100032.75;;;18.83
67599;BMP280;62026;39.230;9.122;2022-12-13T10:44:45;100035.50;;;18.73
67599;BMP280;62026;39.230;9.122;2022-12-13T10:47:21;100055.59;;;18.70
67599;BMP280;62026;39.230;9.122;2022-12-13T10:49:57;100059.34;;;18.69
67599;BMP280;62026;39.230;9.122;2022-12-13T10:52:32;100055.09;;;18.63
67599;BMP280;62026;39.230;9.122;2022-12-13T10:55:06;100058.00;;;18.67
67599;BMP280;62026;39.230;9.122;2022-12-13T10:57:51;100048.41;;;18.66
67599;BMP280;62026;39.230;9.122;2022-12-13T11:02:56;100012.38;;;18.58
67599;BMP280;62026;39.230;9.122;2022-12-13T11:05:30;100023.53;;;18.65
67599;BMP280;62026;39.230;9.122;2022-12-13T11:08:33;100031.75;;;18.74
67599;BMP280;62026;39.230;9.122;2022-12-13T11:11:05;100025.66;;;18.68
67599;BMP280;62026;39.230;9.122;2022-12-13T11:13:50;100019.78;;;18.66
67599;BMP280;62026;39.230;9.122;2022-12-13T11:16:25;100015.81;;;18.63
67599;BMP280;62026;39.230;9.122;2022-12-13T11:19:03;100015.50;;;18.70
67599;BMP280;62026;39.230;9.122;2022-12-13T11:21:36;100010.97;;;18.66
67599;BMP280;62026;39.230;9.122;2022-12-13T11:24:07;100012.06;;;18.64
67599;BMP280;62026;39.230;9.122;2022-12-13T11:26:37;100010.63;;;18.72
67599;BMP280;62026;39.230;9.122;2022-12-13T11:39:30;99994.84;;;18.76
67599;BMP280;62026;39.230;9.122;2022-12-13T11:45:00;99995.03;;;18.84
67599;BMP280;62026;39.230;9.122;2022-12-13T11:50:56;99996.28;;;18.92
67599;BMP280;62026;39.230;9.122;2022-12-13T11:53:55;99996.34;;;18.82
67599;BMP280;62026;39.230;9.122;2022-12-13T11:56:40;99994.03;;;18.75
67599;BMP280;62026;39.230;9.122;2022-12-13T11:59:33;99998.06;;;18.73
67599;BMP280;62026;39.230;9.122;2022-12-13T12:02:33;99980.44;;;18.72
67599;BMP280;62026;39.230;9.122;2022-12-13T12:05:19;99978.50;;;18.77
67599;BMP280;62026;39.230;9.122;2022-12-13T12:07:55;99977.03;;;18.90
67599;BMP280;62026;39.230;9.122;2022-12-13T12:10:36;99981.06;;;18.87
67599;BMP280;62026;39.230;9.122;2022-12-13T12:18:55;99944.66;;;18.68
67599;BMP280;62026;39.230;9.122;2022-12-13T12:27:19;99958.50;;;18.75
67599;BMP280;62026;39.230;9.122;2022-12-13T12:41:11;99943.16;;;18.80
67599;BMP280;62026;39.230;9.122;2022-12-13T12:43:41;99934.69;;;18.73
67599;BMP280;62026;39.230;9.122;2022-12-13T12:49:44;99928.00;;;18.76
67599;BMP280;62026;39.230;9.122;2022-12-13T12:52:50;99924.91;;;18.87
67599;BMP280;62026;39.230;9.122;2022-12-13T12:58:46;99936.97;;;18.85
67599;BMP280;62026;39.230;9.122;2022-12-13T13:01:44;99925.84;;;18.78
67599;BMP280;62026;39.230;9.122;2022-12-13T13:04:17;99937.13;;;18.75
67599;BMP280;62026;39.230;9.122;2022-12-13T13:06:58;99940.75;;;18.84
67599;BMP280;62026;39.230;9.122;2022-12-13T13:09:25;99921.09;;;18.75
67599;BMP280;62026;39.230;9.122;2022-12-13T13:11:52;99933.97;;;18.68
67599;BMP280;62026;39.230;9.122;2022-12-13T13:14:30;99936.09;;;18.71
67599;BMP280;62026;39.230;9.122;2022-12-13T13:20:17;99929.16;;;18.70
67599;BMP280;62026;39.230;9.122;2022-12-13T13:22:43;99930.75;;;18.71
67599;BMP280;62026;39.230;9.122;2022-12-13T13:25:20;99932.19;;;18.82
67599;BMP280;62026;39.230;9.122;2022-12-13T13:27:49;99930.94;;;18.74
67599;BMP280;62026;39.230;9.122;2022-12-13T13:30:22;99948.22;;;18.82
67599;BMP280;62026;39.230;9.122;2022-12-13T13:32:54;99940.50;;;18.80
67599;BMP280;62026;39.230;9.122;2022-12-13T13:38:46;99936.38;;;18.69
67599;BMP280;62026;39.230;9.122;2022-12-13T13:41:52;99957.91;;;18.78
67599;BMP280;62026;39.230;9.122;2022-12-13T14:05:12;99973.97;;;18.78
67599;BMP280;62026;39.230;9.122;2022-12-13T14:08:35;99978.28;;;18.74
67599;BMP280;62026;39.230;9.122;2022-12-13T14:23:42;99989.41;;;18.81
67599;BMP280;62026;39.230;9.122;2022-12-13T14:29:38;99986.53;;;18.77
67599;BMP280;62026;39.230;9.122;2022-12-13T14:32:29;99986.25;;;18.79
67599;BMP280;62026;39.230;9.122;2022-12-13T14:35:00;99996.91;;;18.84
67599;BMP280;62026;39.230;9.122;2022-12-13T14:37:30;99992.16;;;18.76
67599;BMP280;62026;39.230;9.122;2022-12-13T14:40:32;100006.25;;;18.81
67599;BMP280;62026;39.230;9.122;2022-12-13T14:42:59;100002.84;;;18.76
67599;BMP280;62026;39.230;9.122;2022-12-13T14:45:28;100004.78;;;18.70
67599;BMP280;62026;39.230;9.122;2022-12-13T14:48:00;100002.97;;;18.66
67599;BMP280;62026;39.230;9.122;2022-12-13T14:50:34;100001.16;;;18.61
67599;BMP280;62026;39.230;9.122;2022-12-13T14:53:00;100007.19;;;18.67
67599;BMP280;62026;39.230;9.122;2022-12-13T14:55:35;100001.63;;;18.63
67599;BMP280;62026;39.230;9.122;2022-12-13T14:58:15;100008.09;;;18.57
67599;BMP280;62026;39.230;9.122;2022-12-13T15:00:43;99989.72;;;18.50
67599;BMP280;62026;39.230;9.122;2022-12-13T15:03:22;100013.16;;;18.58
67599;BMP280;62026;39.230;9.122;2022-12-13T15:05:54;100025.50;;;18.54
67599;BMP280;62026;39.230;9.122;2022-12-13T15:08:21;100037.81;;;18.55
67599;BMP280;62026;39.230;9.122;2022-12-13T15:10:51;100044.78;;;18.51
67599;BMP280;62026;39.230;9.122;2022-12-13T15:13:37;100047.72;;;18.50
67599;BMP280;62026;39.230;9.122;2022-12-13T15:16:22;100061.38;;;18.48
67599;BMP280;62026;39.230;9.122;2022-12-13T15:19:21;100061.38;;;18.43
67599;BMP280;62026;39.230;9.122;2022-12-13T15:22:04;100054.44;;;18.47
67599;BMP280;62026;39.230;9.122;2022-12-13T15:24:39;100054.75;;;18.41
67599;BMP280;62026;39.230;9.122;2022-12-13T15:27:24;100059.31;;;18.40
67599;BMP280;62026;39.230;9.122;2022-12-13T15:29:51;100066.22;;;18.46
67599;BMP280;62026;39.230;9.122;2022-12-13T15:32:21;100073.72;;;18.44
67599;BMP280;62026;39.230;9.122;2022-12-13T15:34:50;100066.75;;;18.43
67599;BMP280;62026;39.230;9.122;2022-12-13T15:37:23;100065.69;;;18.44
67599;BMP280;62026;39.230;9.122;2022-12-13T15:39:54;100078.50;;;18.47
67599;BMP280;62026;39.230;9.122;2022-12-13T15:42:34;100078.53;;;18.42
67599;BMP280;62026;39.230;9.122;2022-12-13T15:45:16;100072.44;;;18.37
67599;BMP280;62026;39.230;9.122;2022-12-13T15:47:47;100081.19;;;18.42
67599;BMP280;62026;39.230;9.122;2022-12-13T15:50:37;100094.25;;;18.44
67599;BMP280;62026;39.230;9.122;2022-12-13T15:53:26;100094.03;;;18.45
67599;BMP280;62026;39.230;9.122;2022-12-13T15:55:52;100095.38;;;18.43
67599;BMP280;62026;39.230;9.122;2022-12-13T15:58:30;100080.69;;;18.40
67599;BMP280;62026;39.230;9.122;2022-12-13T16:00:57;100081.75;;;18.39
67599;BMP280;62026;39.230;9.122;2022-12-13T16:03:25;100082.06;;;18.38
67599;BMP280;62026;39.230;9.122;2022-12-13T16:05:56;100091.94;;;18.37
67599;BMP280;62026;39.230;9.122;2022-12-13T16:08:29;100100.75;;;18.38
67599;BMP280;62026;39.230;9.122;2022-12-13T16:10:56;100105.31;;;18.37
67599;BMP280;62026;39.230;9.122;2022-12-13T16:13:28;100097.81;;;18.34
67599;BMP280;62026;39.230;9.122;2022-12-13T16:16:00;100107.69;;;18.34
67599;BMP280;62026;39.230;9.122;2022-12-13T16:18:39;100113.63;;;18.31
67599;BMP280;62026;39.230;9.122;2022-12-13T16:21:07;100110.16;;;18.25
67599;BMP280;62026;39.230;9.122;2022-12-13T16:23:34;100119.75;;;18.31
67599;BMP280;62026;39.230;9.122;2022-12-13T16:26:00;100118.16;;;18.30
67599;BMP280;62026;39.230;9.122;2022-12-13T16:28:26;100118.69;;;18.32
67599;BMP280;62026;39.230;9.122;2022-12-13T16:33:23;100102.69;;;18.27
67599;BMP280;62026;39.230;9.122;2022-12-13T16:35:50;100098.38;;;18.31